Time;durP1;ratioP1;P1;durP2;ratioP2;P2;SDS_P1;SDS_P2;PMS_P1;PMS_P2;Temp;Humidity;BMP_temperature;BMP_pressure;BME280_temperature;BME280_humidity;BME280_pressure;Samples;Min_cycle;Max_cycle;Signal;HPM_P1;HPM_P2
2021/11/16 00:01:25;;;;;;;7.47;5.38;;;1.00;99.90;;;;;;5017323;28;20052;-92
2021/11/16 00:03:55;;;;;;;6.90;5.50;;;1.00;99.90;;;;;;4999264;28;20034;-90
2021/11/16 00:06:21;;;;;;;9.43;5.97;;;1.00;99.90;;;;;;4999692;28;20107;-91
2021/11/16 00:08:48;;;;;;;7.97;5.93;;;1.00;99.90;;;;;;5000049;28;20045;-90
2021/11/16 00:11:15;;;;;;;9.18;5.75;;;0.90;99.90;;;;;;5016932;28;20034;-91
2021/11/16 00:13:41;;;;;;;10.57;6.05;;;0.90;99.90;;;;;;5016888;28;20030;-92
2021/11/16 00:16:07;;;;;;;7.88;5.75;;;0.90;99.90;;;;;;4999552;28;20033;-90
2021/11/16 00:18:33;;;;;;;7.88;5.53;;;0.90;99.90;;;;;;4999334;28;20041;-91
2021/11/16 00:20:59;;;;;;;8.50;6.05;;;0.90;99.90;;;;;;5013316;28;20030;-92
2021/11/16 00:23:34;;;;;;;7.38;5.65;;;0.90;99.90;;;;;;5036958;28;20021;-91
2021/11/16 00:26:01;;;;;;;8.15;5.78;;;0.90;99.90;;;;;;5018914;28;20032;-93
2021/11/16 00:28:27;;;;;;;9.68;5.97;;;0.90;99.90;;;;;;5036548;28;20021;-90
2021/11/16 00:30:53;;;;;;;7.85;5.88;;;1.00;99.90;;;;;;5018824;28;20054;-92
2021/11/16 00:33:23;;;;;;;8.32;6.10;;;1.00;99.90;;;;;;5018985;28;20025;-93
2021/11/16 00:35:50;;;;;;;10.07;6.63;;;1.10;99.90;;;;;;5018822;28;20428;-91
2021/11/16 00:38:17;;;;;;;7.88;6.20;;;1.20;99.90;;;;;;5036287;28;20049;-91
2021/11/16 00:40:44;;;;;;;8.52;6.40;;;1.20;99.90;;;;;;5002374;28;20443;-90
2021/11/16 00:43:10;;;;;;;8.35;5.85;;;1.30;99.90;;;;;;5016401;28;20030;-90
2021/11/16 00:45:39;;;;;;;8.40;6.45;;;1.40;99.90;;;;;;5016493;28;20499;-91
2021/11/16 00:48:05;;;;;;;8.23;6.05;;;1.40;99.90;;;;;;4999107;28;20465;-90
2021/11/16 00:50:33;;;;;;;9.02;6.07;;;1.50;99.90;;;;;;4998796;28;20030;-91
2021/11/16 00:52:59;;;;;;;8.55;5.80;;;1.50;99.90;;;;;;4999134;28;20026;-91
2021/11/16 00:55:26;;;;;;;8.23;6.35;;;1.40;99.90;;;;;;4998974;28;20028;-90
2021/11/16 00:57:51;;;;;;;9.45;6.38;;;1.40;99.90;;;;;;4998658;28;20024;-91
2021/11/16 01:00:17;;;;;;;9.13;6.50;;;1.50;99.90;;;;;;5032794;28;20033;-90
2021/11/16 01:02:45;;;;;;;9.25;6.13;;;1.50;99.90;;;;;;5035750;28;20037;-91
2021/11/16 01:05:12;;;;;;;11.20;6.72;;;1.40;99.90;;;;;;5018161;28;20434;-91
2021/11/16 01:07:39;;;;;;;9.02;6.38;;;1.30;99.90;;;;;;5016706;28;20033;-90
2021/11/16 01:10:07;;;;;;;8.07;5.88;;;1.30;99.90;;;;;;5018025;28;20419;-91
2021/11/16 01:12:34;;;;;;;9.95;6.53;;;1.20;99.90;;;;;;5035616;28;20024;-90
2021/11/16 01:14:59;;;;;;;11.38;7.22;;;1.10;99.90;;;;;;5034964;28;20075;-90
2021/11/16 01:17:25;;;;;;;9.35;6.65;;;1.00;99.90;;;;;;5017906;28;20017;-90
2021/11/16 01:19:52;;;;;;;7.22;5.93;;;1.00;99.90;;;;;;5035677;28;20025;-90
2021/11/16 01:22:18;;;;;;;10.27;7.05;;;1.00;99.90;;;;;;5017781;28;20112;-90
2021/11/16 01:24:44;;;;;;;8.98;6.45;;;1.00;99.90;;;;;;5018103;28;20427;-90
2021/11/16 01:27:14;;;;;;;10.10;6.78;;;0.90;99.90;;;;;;5001112;28;20033;-90
2021/11/16 01:29:41;;;;;;;8.00;5.68;;;0.80;99.90;;;;;;4997797;28;20053;-90
2021/11/16 01:32:15;;;;;;;9.60;6.43;;;0.80;99.90;;;;;;4999024;28;20033;-90
2021/11/16 01:34:46;;;;;;;12.75;8.32;;;0.70;99.90;;;;;;4998030;28;20022;-90
2021/11/16 01:37:14;;;;;;;14.02;10.75;;;0.60;99.90;;;;;;5015807;28;20025;-90
2021/11/16 01:39:40;;;;;;;16.60;10.32;;;0.60;99.90;;;;;;4998108;28;20022;-90
2021/11/16 01:42:06;;;;;;;19.77;12.55;;;0.50;99.90;;;;;;4997866;28;20536;-90
2021/11/16 01:44:32;;;;;;;16.50;11.10;;;0.50;99.90;;;;;;4997757;28;20030;-90
2021/11/16 01:46:58;;;;;;;18.88;12.32;;;0.50;99.90;;;;;;5016712;28;20047;-90
2021/11/16 01:49:24;;;;;;;19.02;11.60;;;0.40;99.90;;;;;;4998436;28;20029;-91
2021/11/16 01:51:49;;;;;;;14.35;9.85;;;0.40;99.90;;;;;;4997518;28;20390;-90
2021/11/16 01:54:15;;;;;;;15.35;9.40;;;0.40;99.90;;;;;;5015055;28;20060;-90
2021/11/16 01:56:44;;;;;;;17.48;9.13;;;0.40;99.90;;;;;;5015027;28;20029;-90
2021/11/16 01:59:11;;;;;;;14.43;8.50;;;0.40;99.90;;;;;;4997744;28;20391;-90
2021/11/16 02:01:38;;;;;;;12.15;8.70;;;0.30;99.90;;;;;;4997715;28;20032;-91
2021/11/16 02:04:05;;;;;;;15.55;8.40;;;0.30;99.90;;;;;;4998023;28;20026;-90
2021/11/16 02:06:38;;;;;;;20.75;9.10;;;0.20;99.90;;;;;;5015199;28;20033;-91
2021/11/16 02:09:07;;;;;;;12.18;8.10;;;0.20;99.90;;;;;;4997514;28;20389;-91
2021/11/16 02:11:34;;;;;;;13.10;7.90;;;0.20;99.90;;;;;;4997527;28;20037;-91
2021/11/16 02:14:00;;;;;;;11.90;7.53;;;0.20;99.90;;;;;;4997336;28;20460;-90
2021/11/16 02:16:26;;;;;;;12.57;7.88;;;0.20;99.90;;;;;;4997361;28;20029;-90
2021/11/16 02:18:52;;;;;;;15.25;7.13;;;0.10;99.90;;;;;;4997519;28;20022;-90
2021/11/16 02:21:18;;;;;;;12.23;7.93;;;0.10;99.90;;;;;;4997500;28;20030;-90
2021/11/16 02:23:44;;;;;;;12.52;7.80;;;0.00;99.90;;;;;;4998370;28;20030;-90
2021/11/16 02:26:12;;;;;;;12.82;7.20;;;0.00;99.90;;;;;;5016554;28;20392;-90
2021/11/16 02:28:38;;;;;;;14.35;8.13;;;-0.10;99.90;;;;;;5016875;28;20021;-89
2021/11/16 02:31:05;;;;;;;13.70;8.35;;;-0.20;99.90;;;;;;5016420;28;20195;-89
2021/11/16 02:33:32;;;;;;;11.93;8.25;;;-0.20;99.90;;;;;;5016891;28;20099;-89
2021/11/16 02:35:57;;;;;;;11.95;7.45;;;-0.20;99.90;;;;;;5016868;28;20032;-89
2021/11/16 02:38:23;;;;;;;13.52;8.52;;;-0.20;99.90;;;;;;5016767;28;20404;-90
2021/11/16 02:40:49;;;;;;;12.93;8.15;;;-0.20;99.90;;;;;;5034242;28;20077;-89
2021/11/16 02:43:16;;;;;;;12.30;8.27;;;-0.30;99.90;;;;;;5032686;28;20025;-90
2021/11/16 02:45:42;;;;;;;13.23;8.50;;;-0.20;99.90;;;;;;4997308;28;20026;-89
2021/11/16 02:48:13;;;;;;;13.68;8.15;;;-0.30;99.90;;;;;;4996952;28;20073;-89
2021/11/16 02:50:46;;;;;;;13.75;8.73;;;-0.20;99.90;;;;;;4996882;28;20030;-89
2021/11/16 02:53:13;;;;;;;13.15;8.93;;;-0.20;99.90;;;;;;4994264;28;20092;-89
2021/11/16 02:55:39;;;;;;;14.20;8.52;;;-0.30;99.90;;;;;;4996850;28;20022;-90
2021/11/16 02:58:05;;;;;;;10.95;7.20;;;-0.30;99.90;;;;;;5014361;28;20018;-89
2021/11/16 03:00:31;;;;;;;13.15;8.30;;;-0.20;99.90;;;;;;5014780;28;20511;-89
2021/11/16 03:02:58;;;;;;;15.60;8.20;;;-0.30;99.90;;;;;;4996843;28;20029;-89
2021/11/16 03:05:31;;;;;;;14.32;7.60;;;-0.20;99.90;;;;;;5014469;28;20037;-89
2021/11/16 03:07:58;;;;;;;12.68;7.97;;;-0.30;99.90;;;;;;4997056;28;20037;-89
2021/11/16 03:10:29;;;;;;;12.52;7.80;;;-0.30;99.90;;;;;;5006473;28;20124;-89
2021/11/16 03:12:55;;;;;;;11.57;7.35;;;-0.30;99.90;;;;;;5016136;28;20021;-89
2021/11/16 03:15:20;;;;;;;14.70;7.50;;;-0.30;99.90;;;;;;5035152;28;20037;-89
2021/11/16 03:17:47;;;;;;;13.65;8.00;;;-0.30;99.90;;;;;;5026061;28;20026;-89
2021/11/16 03:20:14;;;;;;;12.27;7.38;;;-0.30;99.90;;;;;;5016035;28;20037;-89
2021/11/16 03:22:56;;;;;;;12.52;7.65;;;-0.30;99.90;;;;;;5020253;28;20049;-89
2021/11/16 03:25:27;;;;;;;14.15;8.05;;;-0.30;99.90;;;;;;5018992;28;20480;-90
2021/11/16 03:28:01;;;;;;;15.40;9.00;;;-0.30;99.90;;;;;;5016401;28;20466;-90
2021/11/16 03:30:28;;;;;;;11.90;8.73;;;-0.30;99.90;;;;;;5014358;28;20041;-89
2021/11/16 03:32:54;;;;;;;12.93;8.38;;;-0.40;99.90;;;;;;5016366;28;20057;-89
2021/11/16 03:35:20;;;;;;;18.88;11.13;;;-0.40;99.90;;;;;;5017066;28;20025;-90
2021/11/16 03:37:50;;;;;;;13.18;9.40;;;-0.50;99.90;;;;;;5003100;28;20025;-90
2021/11/16 03:40:17;;;;;;;13.57;8.18;;;-0.40;99.90;;;;;;5000227;28;20120;-90
2021/11/16 03:42:48;;;;;;;12.85;7.22;;;-0.40;99.90;;;;;;5000207;28;20029;-90
2021/11/16 03:45:16;;;;;;;12.98;7.50;;;-0.40;99.90;;;;;;5000202;28;20036;-90
2021/11/16 03:47:42;;;;;;;14.77;7.55;;;-0.50;99.90;;;;;;5017776;28;20022;-92
2021/11/16 03:50:12;;;;;;;11.73;7.30;;;-0.50;99.90;;;;;;5001541;28;20519;-90
2021/11/16 03:52:41;;;;;;;10.05;7.53;;;-0.50;99.90;;;;;;5017590;28;20029;-90
2021/11/16 03:55:12;;;;;;;11.55;7.00;;;-0.50;99.90;;;;;;4999888;28;20038;-90
2021/11/16 03:57:38;;;;;;;11.18;6.43;;;-0.50;99.90;;;;;;4999927;28;20076;-90
2021/11/16 04:00:18;;;;;;;12.93;7.55;;;-0.50;99.90;;;;;;4999653;28;20034;-90
2021/11/16 04:02:44;;;;;;;11.38;7.15;;;-0.50;99.90;;;;;;4999724;28;20038;-90
2021/11/16 04:05:11;;;;;;;13.55;7.43;;;-0.60;99.90;;;;;;5017028;28;20384;-90
2021/11/16 04:07:36;;;;;;;11.80;7.10;;;-0.50;99.90;;;;;;5017042;28;20025;-90
2021/11/16 04:10:07;;;;;;;11.73;7.22;;;-0.60;99.90;;;;;;5021222;28;20029;-90
2021/11/16 04:12:33;;;;;;;12.23;7.78;;;-0.50;99.90;;;;;;5019354;28;20053;-90
2021/11/16 04:14:59;;;;;;;13.32;7.20;;;-0.60;99.90;;;;;;5019141;28;20103;-90
2021/11/16 04:17:24;;;;;;;11.88;7.22;;;-0.60;99.90;;;;;;5018954;28;20088;-90
2021/11/16 04:19:50;;;;;;;12.77;7.47;;;-0.60;99.90;;;;;;5025121;28;20480;-89
2021/11/16 15:06:28;;;;;;;71.47;33.15;;;-0.40;94.40;;;;;;5112486;27;20781;-93
2021/11/16 15:09:11;;;;;;;79.57;34.92;;;-0.50;94.60;;;;;;5111191;28;20027;-89
2021/11/16 15:11:38;;;;;;;82.75;38.42;;;-0.50;95.40;;;;;;5110892;28;20024;-89
2021/11/16 15:14:07;;;;;;;86.13;38.20;;;-0.60;95.90;;;;;;5104711;28;20023;-92
2021/11/16 15:16:39;;;;;;;87.38;39.63;;;-0.50;96.40;;;;;;5102580;28;20024;-92
2021/11/16 15:19:10;;;;;;;82.13;38.58;;;-0.50;96.90;;;;;;5090544;28;20520;-90
2021/11/16 15:21:48;;;;;;;160.30;72.03;;;-0.50;97.30;;;;;;5090463;28;20036;-90
2021/11/16 15:27:31;;;;;;;179.45;86.93;;;-0.40;98.00;;;;;;5083732;28;20466;-95
2021/11/16 15:30:33;;;;;;;141.43;66.45;;;-0.40;98.30;;;;;;5105701;28;20063;-92
2021/11/16 15:33:08;;;;;;;103.35;47.95;;;-0.40;98.50;;;;;;5090513;28;20024;-92
2021/11/16 15:35:41;;;;;;;89.00;42.05;;;-0.30;98.80;;;;;;5090378;28;20137;-93
2021/11/16 15:38:09;;;;;;;86.72;39.65;;;-0.40;98.90;;;;;;5090388;28;20025;-92
2021/11/16 15:40:35;;;;;;;74.55;36.33;;;-0.30;99.00;;;;;;5090322;28;20033;-91
2021/11/16 15:43:20;;;;;;;78.25;36.65;;;-0.30;99.20;;;;;;5090089;28;20029;-91
2021/11/16 15:45:59;;;;;;;71.40;35.22;;;-0.30;99.30;;;;;;5089891;28;20039;-91
2021/11/16 15:48:29;;;;;;;74.53;37.33;;;-0.30;99.40;;;;;;5090574;28;20020;-91
2021/11/16 15:59:16;;;;;;;71.15;33.58;;;-0.30;99.60;;;;;;5091746;28;20055;-92
2021/11/16 16:01:42;;;;;;;66.32;34.08;;;-0.40;99.70;;;;;;5090121;28;20485;-92
2021/11/16 16:04:08;;;;;;;73.30;34.63;;;-0.40;99.70;;;;;;5089723;28;20032;-93
2021/11/16 16:06:35;;;;;;;78.38;37.03;;;-0.40;99.70;;;;;;5089730;28;20077;-93
2021/11/16 16:09:07;;;;;;;76.30;36.80;;;-0.40;99.80;;;;;;5089778;28;20020;-89
2021/11/16 16:11:36;;;;;;;88.13;40.90;;;-0.40;99.80;;;;;;5089671;28;20020;-91
2021/11/16 16:14:21;;;;;;;97.72;43.63;;;-0.40;99.90;;;;;;5089859;28;20027;-90
2021/11/16 16:16:52;;;;;;;89.82;44.40;;;-0.50;99.90;;;;;;5084529;28;20481;-90
2021/11/16 16:19:20;;;;;;;87.45;44.42;;;-0.40;99.90;;;;;;5096218;28;20060;-91
2021/11/16 16:21:48;;;;;;;100.85;46.38;;;-0.50;99.80;;;;;;5092655;28;20047;-89
2021/11/16 16:24:15;;;;;;;95.47;44.88;;;-0.50;99.90;;;;;;5075837;28;20023;-90
2021/11/16 16:26:41;;;;;;;90.75;44.95;;;-0.50;99.90;;;;;;5075818;28;20029;-90
2021/11/16 16:29:08;;;;;;;89.40;42.40;;;-0.50;99.90;;;;;;5075831;28;20017;-91
2021/11/16 16:31:37;;;;;;;93.93;45.35;;;-0.50;99.90;;;;;;5075774;28;20017;-90
2021/11/16 16:34:04;;;;;;;98.53;48.78;;;-0.60;99.90;;;;;;5075804;28;20116;-91
2021/11/16 16:36:30;;;;;;;88.25;43.42;;;-0.60;99.70;;;;;;5075834;28;20082;-90
2021/11/16 16:38:57;;;;;;;93.38;46.22;;;-0.60;99.90;;;;;;5075913;28;20021;-91
2021/11/16 16:41:24;;;;;;;95.30;46.38;;;-0.60;99.90;;;;;;5075562;28;20024;-90
2021/11/16 16:44:03;;;;;;;98.47;47.70;;;-0.60;99.90;;;;;;5075853;28;20036;-90
2021/11/16 16:46:32;;;;;;;102.10;48.30;;;-0.60;99.90;;;;;;5075413;28;20043;-90
2021/11/16 16:48:58;;;;;;;128.52;58.80;;;-0.60;99.90;;;;;;5094793;28;20089;-90
2021/11/16 16:51:26;;;;;;;173.30;80.30;;;-0.70;99.90;;;;;;5095531;28;20029;-90
2021/11/16 16:53:53;;;;;;;211.18;94.55;;;-0.70;99.90;;;;;;5095659;28;20489;-89
2021/11/16 16:56:23;;;;;;;149.25;68.30;;;-0.70;99.90;;;;;;5092304;28;20028;-89
2021/11/16 16:58:56;;;;;;;;;;;-0.70;99.90;;;;;;5086170;28;20032;-90
2021/11/16 17:01:23;;;;;;;128.88;57.40;;;-0.70;99.50;;;;;;5095461;28;19904;-90
2021/11/16 17:03:49;;;;;;;130.93;65.18;;;-0.80;99.90;;;;;;5095449;28;20059;-90
2021/11/16 17:06:15;;;;;;;135.10;63.65;;;-0.80;99.90;;;;;;5094910;28;20251;-90
2021/11/16 17:08:41;;;;;;;132.20;62.88;;;-0.80;99.90;;;;;;5095862;28;20474;-96
2021/11/16 17:11:58;;;;;;;136.13;64.60;;;-0.80;99.90;;;;;;5096994;28;20031;-91
2021/11/16 17:14:24;;;;;;;133.93;59.50;;;-0.80;99.90;;;;;;5097547;28;20045;-96
2021/11/16 17:16:53;;;;;;;129.18;57.47;;;-0.90;99.90;;;;;;5099202;28;20120;-95
2021/11/16 17:19:20;;;;;;;128.07;61.58;;;-0.90;99.90;;;;;;5096093;28;20028;-95
2021/11/16 17:21:45;;;;;;;142.68;65.15;;;-0.80;99.90;;;;;;5096533;28;20032;-93
2021/11/16 17:24:11;;;;;;;134.30;63.22;;;-0.90;99.90;;;;;;5095852;28;20035;-93
2021/11/16 17:26:37;;;;;;;135.55;62.78;;;-0.90;99.90;;;;;;5095496;28;20016;-93
2021/11/16 17:29:04;;;;;;;138.88;63.88;;;-0.90;99.90;;;;;;5095375;28;20028;-93
2021/11/16 17:31:31;;;;;;;136.95;61.72;;;-0.90;99.90;;;;;;5095240;28;20016;-93
2021/11/16 17:33:57;;;;;;;133.48;62.70;;;-0.90;99.90;;;;;;5095114;28;20448;-92
2021/11/16 17:36:23;;;;;;;143.70;63.55;;;-1.00;99.90;;;;;;5094724;28;20428;-91
2021/11/16 17:38:48;;;;;;;140.43;64.82;;;-1.00;99.90;;;;;;5095152;28;20024;-90
2021/11/16 17:41:15;;;;;;;136.60;61.50;;;-1.00;99.90;;;;;;5095048;28;20028;-91
2021/11/16 17:43:41;;;;;;;133.38;60.47;;;-1.10;99.90;;;;;;5094755;28;20027;-90
2021/11/16 17:46:07;;;;;;;181.95;79.28;;;-1.10;99.90;;;;;;5094071;28;20020;-90
2021/11/16 17:48:33;;;;;;;163.85;72.03;;;-1.10;99.90;;;;;;5094030;28;20024;-89
2021/11/16 17:51:00;;;;;;;159.50;69.63;;;-1.10;99.90;;;;;;5093781;28;20377;-89
2021/11/16 17:53:26;;;;;;;145.63;65.15;;;-1.10;99.90;;;;;;5094377;28;20028;-90
2021/11/16 17:55:52;;;;;;;152.75;67.22;;;-1.10;99.90;;;;;;5094097;28;20020;-90
2021/11/16 17:58:18;;;;;;;164.80;74.20;;;-1.10;99.90;;;;;;5094192;28;20169;-90
2021/11/16 18:00:44;;;;;;;154.93;67.07;;;-1.10;99.90;;;;;;5094311;28;20032;-91
2021/11/16 18:03:09;;;;;;;143.85;63.65;;;-1.10;99.90;;;;;;5094391;28;20020;-90
2021/11/16 18:05:41;;;;;;;143.10;64.70;;;-1.20;99.90;;;;;;5093846;28;20154;-91
2021/11/16 18:08:10;;;;;;;133.25;60.25;;;-1.20;99.90;;;;;;5094089;28;20028;-91
2021/11/16 18:10:39;;;;;;;133.30;60.92;;;-1.20;99.90;;;;;;5094099;28;20024;-90
2021/11/16 18:13:06;;;;;;;133.52;56.08;;;-1.30;99.90;;;;;;5094147;28;20024;-94
2021/11/16 18:15:33;;;;;;;129.45;57.42;;;-1.30;99.90;;;;;;5094033;28;20386;-91
2021/11/16 18:18:00;;;;;;;137.77;57.25;;;-1.30;99.90;;;;;;5093986;28;20081;-90
2021/11/16 18:20:26;;;;;;;133.07;57.50;;;-1.30;99.90;;;;;;5094034;28;20038;-90
2021/11/16 18:22:54;;;;;;;127.97;56.70;;;-1.30;99.90;;;;;;5091255;28;20115;-91
2021/11/16 18:25:20;;;;;;;139.30;58.08;;;-1.30;99.90;;;;;;5073472;28;20386;-90
2021/11/16 18:27:48;;;;;;;145.02;60.20;;;-1.40;99.90;;;;;;5073491;28;20056;-91
2021/11/16 18:30:21;;;;;;;132.57;57.78;;;-1.40;99.90;;;;;;5073453;28;20021;-90
2021/11/16 18:32:50;;;;;;;141.25;61.72;;;-1.40;99.90;;;;;;5073391;28;20028;-90
2021/11/16 18:35:17;;;;;;;145.50;63.25;;;-1.40;99.90;;;;;;5073268;28;20073;-92
2021/11/16 18:37:45;;;;;;;178.10;77.38;;;-1.40;99.90;;;;;;5073215;28;20032;-90
2021/11/16 18:40:14;;;;;;;165.13;77.43;;;-1.40;99.90;;;;;;5086269;28;20105;-89
2021/11/16 18:42:55;;;;;;;220.93;99.22;;;-1.50;99.90;;;;;;5093524;28;20024;-89
2021/11/16 18:45:21;;;;;;;293.13;125.35;;;-1.50;99.90;;;;;;5085950;28;20459;-88
2021/11/16 18:47:50;;;;;;;293.50;131.75;;;-1.60;99.90;;;;;;5093682;28;20034;-90
2021/11/16 18:50:19;;;;;;;269.73;122.40;;;-1.60;99.90;;;;;;5092814;28;20020;-89
2021/11/16 18:52:45;;;;;;;309.55;133.23;;;-1.60;99.90;;;;;;5073024;28;20050;-88
2021/11/16 18:55:15;;;;;;;315.63;134.90;;;-1.60;99.90;;;;;;5072568;28;20029;-86
2021/11/16 18:57:41;;;;;;;313.38;133.95;;;-1.60;99.90;;;;;;5072468;28;20467;-85
2021/11/16 19:00:09;;;;;;;335.13;138.48;;;-1.60;99.90;;;;;;5072390;28;20040;-86
2021/11/16 19:02:35;;;;;;;350.88;150.75;;;-1.60;99.90;;;;;;5073042;28;20371;-85
2021/11/16 19:05:02;;;;;;;362.35;149.88;;;-1.60;99.90;;;;;;5073352;28;20071;-86
2021/11/16 19:07:29;;;;;;;372.48;164.55;;;-1.60;99.90;;;;;;5073516;28;20514;-86
2021/11/16 19:09:55;;;;;;;373.38;160.48;;;-1.60;99.90;;;;;;5089164;28;20055;-85
2021/11/16 19:12:21;;;;;;;402.13;172.13;;;-1.70;99.90;;;;;;5073594;28;20025;-85
2021/11/16 19:14:49;;;;;;;399.63;177.25;;;-1.70;99.90;;;;;;5073554;28;20040;-86
2021/11/16 19:17:20;;;;;;;426.00;185.73;;;-1.70;99.90;;;;;;5089153;28;20052;-86
2021/11/16 19:19:50;;;;;;;469.00;217.57;;;-1.70;99.90;;;;;;5088926;28;20039;-86
2021/11/16 19:22:18;;;;;;;501.20;218.52;;;-1.80;99.90;;;;;;5073399;28;20032;-86
2021/11/16 19:25:03;;;;;;;558.05;270.85;;;-1.80;99.90;;;;;;5073612;28;20024;-86
2021/11/16 19:28:09;;;;;;;508.33;226.15;;;-1.80;99.90;;;;;;5073377;28;20116;-85
2021/11/16 19:30:25;;;;;;;547.85;245.27;;;-1.80;99.90;;;;;;5071088;28;20360;-86
2021/11/16 19:32:53;;;;;;;482.23;209.70;;;-1.80;99.90;;;;;;5089096;28;20056;-85
2021/11/16 19:35:28;;;;;;;491.02;207.90;;;-1.80;99.90;;;;;;5088705;28;20074;-84
2021/11/16 19:37:56;;;;;;;474.70;213.77;;;-1.90;99.90;;;;;;5088764;28;20027;-84
2021/11/16 19:40:33;;;;;;;467.25;202.32;;;-1.90;99.90;;;;;;5073252;28;20021;-84
2021/11/16 19:43:07;;;;;;;451.40;206.48;;;-1.80;99.90;;;;;;5073321;28;20027;-85
2021/11/16 19:45:33;;;;;;;466.02;211.30;;;-1.90;99.90;;;;;;5088757;28;20025;-84
2021/11/16 19:48:01;;;;;;;442.25;190.07;;;-1.90;99.90;;;;;;5088703;28;20466;-85
2021/11/16 19:50:27;;;;;;;441.52;189.82;;;-2.00;99.90;;;;;;5088618;28;20048;-83
2021/11/16 19:52:53;;;;;;;406.20;172.60;;;-2.00;99.90;;;;;;5076282;28;20052;-83
2021/11/16 19:55:21;;;;;;;400.15;175.75;;;-2.00;99.90;;;;;;5093105;28;20437;-84
2021/11/16 19:57:48;;;;;;;395.00;171.00;;;-2.00;99.90;;;;;;5092419;28;20028;-85
2021/11/16 20:00:16;;;;;;;398.70;172.70;;;-2.10;99.90;;;;;;5076684;28;20021;-84
2021/11/16 20:02:42;;;;;;;388.20;173.35;;;-2.10;99.90;;;;;;5093049;28;20027;-84
2021/11/16 20:05:11;;;;;;;373.52;154.70;;;-2.10;99.90;;;;;;5095336;28;20109;-84
2021/11/16 20:07:41;;;;;;;363.35;149.07;;;-2.20;99.90;;;;;;5095828;28;20021;-88
2021/11/16 20:10:08;;;;;;;354.85;149.52;;;-2.10;99.90;;;;;;5095964;28;20024;-89
2021/11/16 20:12:36;;;;;;;364.67;151.68;;;-2.10;99.90;;;;;;5087163;28;20446;-89
2021/11/16 20:15:12;;;;;;;342.13;142.23;;;-2.20;99.90;;;;;;5076305;28;20071;-89
2021/11/16 20:17:37;;;;;;;308.65;133.63;;;-2.20;99.90;;;;;;5075211;28;20050;-88
2021/11/16 20:20:03;;;;;;;321.20;136.25;;;-2.30;99.90;;;;;;5076452;28;20048;-89
2021/11/16 20:22:29;;;;;;;330.45;138.38;;;-2.40;99.90;;;;;;5079555;28;20031;-88
2021/11/16 20:24:55;;;;;;;341.40;145.45;;;-2.40;99.90;;;;;;5095384;28;20024;-88
2021/11/16 20:27:24;;;;;;;330.77;139.40;;;-2.50;99.90;;;;;;5095581;28;20068;-88
2021/11/16 20:29:52;;;;;;;360.50;154.43;;;-2.50;99.90;;;;;;5095666;28;20020;-89
2021/11/16 20:32:20;;;;;;;381.15;156.02;;;-2.60;99.90;;;;;;5095716;28;20404;-88
2021/11/16 20:35:02;;;;;;;392.77;153.25;;;-2.60;99.90;;;;;;5076233;28;20036;-88
2021/11/16 20:37:29;;;;;;;413.25;166.88;;;-2.60;99.90;;;;;;5082422;28;20039;-88
2021/11/16 21:00:47;;;;;;;373.83;151.07;;;-2.50;99.90;;;;;;5076425;28;20035;-88
2021/11/16 21:03:13;;;;;;;355.38;142.63;;;-2.50;99.90;;;;;;5091551;28;20032;-88
2021/11/16 21:05:39;;;;;;;353.55;144.50;;;-2.50;99.90;;;;;;5080606;28;20490;-88
2021/11/16 21:08:06;;;;;;;360.52;149.40;;;-2.50;99.90;;;;;;5084295;28;20021;-88
2021/11/16 21:10:32;;;;;;;330.17;137.82;;;-2.50;99.90;;;;;;5075341;28;20149;-88
2021/11/16 21:13:00;;;;;;;345.00;141.13;;;-2.50;99.90;;;;;;5074722;28;20032;-88
2021/11/16 21:15:26;;;;;;;323.00;134.55;;;-2.50;99.90;;;;;;5074640;28;20032;-89
2021/11/16 21:17:52;;;;;;;316.17;129.68;;;-2.50;99.90;;;;;;5074514;28;20165;-88
2021/11/16 21:20:18;;;;;;;344.30;146.68;;;-2.50;99.90;;;;;;5074527;28;20042;-89
2021/11/16 21:22:44;;;;;;;330.48;137.23;;;-2.60;99.90;;;;;;5074533;28;20028;-89
2021/11/16 21:25:10;;;;;;;322.70;136.38;;;-2.60;99.90;;;;;;5074719;28;20029;-88
2021/11/16 21:27:37;;;;;;;313.35;132.50;;;-2.70;99.90;;;;;;5074487;28;20052;-89
2021/11/16 21:30:04;;;;;;;328.85;135.50;;;-2.70;99.90;;;;;;5074690;28;20024;-89
2021/11/16 21:32:30;;;;;;;321.45;133.23;;;-2.70;99.90;;;;;;5075353;28;20024;-88
2021/11/16 21:34:56;;;;;;;371.10;144.60;;;-2.70;99.90;;;;;;5074581;28;20087;-89
2021/11/16 21:37:23;;;;;;;414.45;162.98;;;-2.70;99.90;;;;;;5074440;28;20024;-89
2021/11/16 21:39:49;;;;;;;414.67;167.48;;;-2.70;99.90;;;;;;5074471;28;20025;-89
2021/11/16 21:42:15;;;;;;;369.55;148.98;;;-2.70;99.90;;;;;;5074513;28;20024;-89
2021/11/16 21:44:41;;;;;;;380.15;147.90;;;-2.80;99.90;;;;;;5075354;28;20052;-89
2021/11/16 21:47:09;;;;;;;380.60;151.25;;;-2.80;99.90;;;;;;5076572;28;20467;-89
2021/11/16 21:49:36;;;;;;;382.92;151.63;;;-2.80;99.90;;;;;;5074130;28;20028;-89
2021/11/16 21:52:03;;;;;;;355.45;140.88;;;-2.80;99.90;;;;;;5074396;28;20021;-89
2021/11/16 21:54:29;;;;;;;305.77;127.80;;;-2.70;99.90;;;;;;5074303;28;20038;-89
2021/11/16 21:56:56;;;;;;;290.95;119.80;;;-2.80;99.90;;;;;;5074075;28;20086;-89
2021/11/16 21:59:22;;;;;;;253.60;104.28;;;-2.80;99.90;;;;;;5075330;28;20012;-88
2021/11/16 22:01:48;;;;;;;226.68;95.72;;;-2.80;99.90;;;;;;5077118;28;20462;-88
2021/11/16 22:04:22;;;;;;;207.52;89.78;;;-2.80;99.90;;;;;;5094130;28;20039;-89
2021/11/16 22:07:00;;;;;;;198.18;85.68;;;-2.90;99.90;;;;;;5095242;28;20027;-89
2021/11/16 22:09:28;;;;;;;167.38;72.97;;;-2.90;99.90;;;;;;5094363;28;20505;-89
2021/11/16 22:11:55;;;;;;;159.70;71.32;;;-2.90;99.90;;;;;;5090645;28;20142;-88
2021/11/16 22:14:22;;;;;;;176.88;75.20;;;-2.90;99.90;;;;;;5093508;28;20051;-89
2021/11/16 22:16:55;;;;;;;149.48;67.70;;;-2.90;99.90;;;;;;5092334;28;20024;-88
2021/11/16 22:19:22;;;;;;;134.70;60.45;;;-2.90;99.90;;;;;;5078937;28;20024;-89
2021/11/16 22:21:48;;;;;;;130.13;56.10;;;-2.90;99.90;;;;;;5093870;28;20020;-88
2021/11/16 22:24:13;;;;;;;131.93;57.30;;;-2.90;99.90;;;;;;5093781;28;20024;-88
2021/11/16 22:26:40;;;;;;;117.82;51.80;;;-2.90;99.90;;;;;;5094636;28;20024;-88
2021/11/16 22:29:09;;;;;;;120.95;54.33;;;-2.90;99.90;;;;;;5073670;28;20394;-88
2021/11/16 22:31:41;;;;;;;119.63;52.08;;;-2.80;99.90;;;;;;5074543;28;20020;-88
2021/11/16 22:34:07;;;;;;;135.43;57.80;;;-2.80;99.90;;;;;;5073547;28;20021;-88
2021/11/16 22:36:33;;;;;;;137.27;58.97;;;-2.90;99.90;;;;;;5074593;28;20505;-88
2021/11/16 22:38:58;;;;;;;134.38;57.42;;;-2.90;99.90;;;;;;5072710;28;20033;-88
2021/11/16 22:41:32;;;;;;;137.25;58.50;;;-2.90;99.90;;;;;;5073308;28;20166;-88
2021/11/16 22:44:04;;;;;;;147.75;62.72;;;-3.00;99.90;;;;;;5073380;28;20025;-88
2021/11/16 22:46:31;;;;;;;159.57;64.50;;;-3.00;99.90;;;;;;5074337;28;20021;-88
2021/11/16 22:48:56;;;;;;;150.15;66.13;;;-3.00;99.90;;;;;;5073568;28;20028;-87
2021/11/16 22:51:22;;;;;;;175.20;69.63;;;-3.00;99.90;;;;;;5077395;28;20028;-88
2021/11/16 22:53:48;;;;;;;161.43;67.82;;;-3.00;99.90;;;;;;5093480;28;20024;-88
2021/11/16 22:56:13;;;;;;;141.98;61.40;;;-3.00;99.90;;;;;;5093397;28;20035;-89
2021/11/16 22:58:39;;;;;;;139.45;60.03;;;-3.10;99.90;;;;;;5093550;28;20115;-89
